Time;durP1;ratioP1;P1;durP2;ratioP2;P2;SDS_P1;SDS_P2;PMS_P1;PMS_P2;Temp;Humidity;BMP_temperature;BMP_pressure;BME280_temperature;BME280_humidity;BME280_pressure;Samples;Min_cycle;Max_cycle;Signal;HPM_P1;HPM_P2
2023/11/12 00:02:17;;;;;;;0.30;0.20;;;9.60;99.90;;;;;;5121657;28;20467;-86
2023/11/12 00:04:43;;;;;;;0.30;0.20;;;9.60;99.90;;;;;;5121407;28;20306;-87
2023/11/12 00:07:09;;;;;;;0.30;0.20;;;9.60;99.90;;;;;;5121433;28;20248;-86
2023/11/12 00:09:39;;;;;;;0.30;0.20;;;9.60;99.90;;;;;;5106374;28;20817;-77
2023/11/12 00:12:06;;;;;;;0.30;0.20;;;9.60;99.90;;;;;;5121761;28;20739;-87
2023/11/12 00:14:32;;;;;;;0.30;0.20;;;9.60;99.90;;;;;;5105711;28;20227;-87
2023/11/12 00:16:58;;;;;;;0.30;0.20;;;9.60;99.90;;;;;;5121808;28;20174;-82
2023/11/12 00:19:24;;;;;;;0.30;0.20;;;9.60;99.90;;;;;;5121674;28;20199;-78
2023/11/12 00:21:49;;;;;;;0.30;0.20;;;9.50;99.90;;;;;;5121214;28;20286;-86
2023/11/12 00:24:18;;;;;;;0.30;0.20;;;9.50;99.90;;;;;;5106231;28;20196;-87
2023/11/12 00:26:43;;;;;;;0.30;0.20;;;9.50;99.90;;;;;;5121250;28;20179;-77
2023/11/12 00:29:09;;;;;;;0.30;0.20;;;9.50;99.90;;;;;;5106035;28;20369;-77
2023/11/12 00:31:35;;;;;;;0.30;0.20;;;9.60;99.90;;;;;;5105597;28;20441;-77
2023/11/12 00:34:00;;;;;;;0.30;0.20;;;9.60;99.90;;;;;;5122756;28;20214;-87
2023/11/12 00:36:26;;;;;;;0.30;0.30;;;9.60;99.90;;;;;;5106516;28;20262;-81
2023/11/12 00:38:52;;;;;;;0.30;0.20;;;9.60;99.90;;;;;;5111027;28;20210;-78
2023/11/12 00:41:19;;;;;;;0.30;0.20;;;9.60;99.90;;;;;;5124952;27;20602;-86
2023/11/12 00:43:45;;;;;;;0.30;0.20;;;9.60;99.90;;;;;;5108312;28;20286;-79
2023/11/12 00:46:11;;;;;;;0.30;0.20;;;9.60;99.90;;;;;;5109195;28;20190;-78
2023/11/12 00:48:37;;;;;;;0.30;0.20;;;9.60;99.90;;;;;;5109590;28;20230;-78
2023/11/12 00:51:04;;;;;;;0.30;0.20;;;9.60;99.90;;;;;;5124994;27;20198;-78
2023/11/12 00:53:30;;;;;;;0.30;0.20;;;9.50;99.90;;;;;;5109374;28;20199;-79
2023/11/12 00:56:00;;;;;;;0.30;0.20;;;9.60;99.90;;;;;;5124485;27;20172;-78
2023/11/12 00:58:27;;;;;;;0.30;0.20;;;9.60;99.90;;;;;;5125015;27;20446;-87
2023/11/12 01:00:52;;;;;;;0.30;0.20;;;9.60;99.90;;;;;;5108631;28;20273;-77
2023/11/12 01:03:18;;;;;;;0.30;0.20;;;9.60;99.90;;;;;;5109122;28;20200;-87
2023/11/12 01:05:44;;;;;;;0.30;0.20;;;9.50;99.90;;;;;;5108730;28;20255;-85
2023/11/12 01:08:10;;;;;;;0.30;0.20;;;9.60;99.90;;;;;;5108881;28;20346;-88
2023/11/12 01:10:36;;;;;;;0.30;0.20;;;9.60;99.90;;;;;;5125467;27;20207;-78
2023/11/12 01:13:02;;;;;;;0.30;0.20;;;9.60;99.90;;;;;;5124848;27;20227;-87
2023/11/12 01:15:29;;;;;;;0.30;0.20;;;9.50;99.90;;;;;;5124735;27;20227;-80
2023/11/12 01:17:55;;;;;;;0.30;0.20;;;9.60;99.90;;;;;;5108453;28;20549;-86
2023/11/12 01:20:21;;;;;;;0.30;0.20;;;9.50;99.90;;;;;;5109116;28;20183;-87
2023/11/12 01:22:47;;;;;;;0.30;0.20;;;9.50;99.90;;;;;;5108215;28;20556;-78
2023/11/12 01:25:14;;;;;;;0.30;0.20;;;9.50;99.90;;;;;;5124427;27;20416;-78
2023/11/12 01:27:40;;;;;;;0.45;0.43;;;9.50;99.90;;;;;;5123971;27;20183;-88
2023/11/12 01:30:07;;;;;;;0.30;0.20;;;9.50;99.90;;;;;;5108439;28;20517;-87
2023/11/12 01:32:33;;;;;;;0.30;0.20;;;9.50;99.90;;;;;;5124232;27;20172;-78
2023/11/12 01:35:00;;;;;;;0.30;0.20;;;9.50;99.90;;;;;;5124198;27;21119;-78
2023/11/12 01:37:26;;;;;;;0.30;0.20;;;9.50;99.90;;;;;;5124193;27;20285;-78
2023/11/12 01:39:51;;;;;;;0.30;0.20;;;9.50;99.90;;;;;;5123726;27;20465;-78
2023/11/12 01:42:17;;;;;;;0.30;0.20;;;9.50;99.90;;;;;;5108075;28;20203;-86
2023/11/12 01:44:43;;;;;;;0.30;0.20;;;9.50;99.90;;;;;;5107488;28;20226;-78
2023/11/12 01:47:10;;;;;;;0.30;0.20;;;9.50;99.90;;;;;;5107670;28;20179;-78
2023/11/12 01:49:37;;;;;;;0.30;0.20;;;9.50;99.90;;;;;;5107592;28;20195;-88
2023/11/12 01:52:08;;;;;;;0.30;0.20;;;9.50;99.90;;;;;;5123682;27;20168;-88
2023/11/12 01:54:37;;;;;;;0.30;0.20;;;9.50;99.90;;;;;;5123876;27;20664;-88
2023/11/12 01:57:04;;;;;;;0.30;0.20;;;9.40;99.90;;;;;;5123648;27;20198;-78
2023/11/12 01:59:34;;;;;;;0.40;0.32;;;9.40;99.90;;;;;;5124035;27;20222;-82
2023/11/12 02:02:00;;;;;;;0.30;0.20;;;9.40;99.90;;;;;;5123757;27;20222;-78
2023/11/12 02:04:27;;;;;;;0.30;0.20;;;9.40;99.90;;;;;;5108252;28;20274;-79
2023/11/12 02:06:53;;;;;;;0.30;0.20;;;9.40;99.90;;;;;;5107601;28;20176;-87
2023/11/12 02:09:22;;;;;;;0.30;0.20;;;9.40;99.90;;;;;;5125010;27;20223;-80
2023/11/12 02:11:49;;;;;;;0.30;0.20;;;9.40;99.90;;;;;;5123550;27;20292;-78
2023/11/12 02:14:16;;;;;;;0.30;0.20;;;9.40;99.90;;;;;;5123430;27;20534;-87
2023/11/12 02:16:44;;;;;;;0.30;0.20;;;9.40;99.90;;;;;;5107460;28;20227;-87
2023/11/12 02:19:25;;;;;;;0.30;0.20;;;9.40;99.90;;;;;;5123153;27;20692;-79
2023/11/12 02:21:52;;;;;;;0.30;0.20;;;9.40;99.90;;;;;;5123201;27;20361;-78
2023/11/12 02:24:19;;;;;;;0.30;0.20;;;9.40;99.90;;;;;;5123219;27;20733;-87
2023/11/12 02:26:46;;;;;;;0.30;0.20;;;9.40;99.90;;;;;;5122858;27;20581;-87
2023/11/12 02:29:12;;;;;;;0.30;0.20;;;9.30;99.90;;;;;;5123537;27;20310;-78
2023/11/12 02:31:38;;;;;;;0.30;0.20;;;9.30;99.90;;;;;;5107161;28;20217;-80
2023/11/12 02:34:05;;;;;;;0.30;0.20;;;9.30;99.90;;;;;;5123262;27;20195;-88
2023/11/12 02:36:31;;;;;;;0.30;0.20;;;9.30;99.90;;;;;;5107256;28;20537;-87
2023/11/12 02:38:57;;;;;;;0.30;0.20;;;9.20;99.90;;;;;;5122846;27;20199;-88
2023/11/12 02:41:23;;;;;;;0.30;0.20;;;9.30;99.90;;;;;;5107098;28;20237;-87
2023/11/12 02:43:50;;;;;;;0.30;0.20;;;9.30;99.90;;;;;;5107902;28;20589;-88
2023/11/12 02:46:16;;;;;;;0.30;0.20;;;9.20;99.90;;;;;;5107164;28;20569;-79
2023/11/12 02:49:22;;;;;;;0.30;0.20;;;9.30;99.90;;;;;;5121983;27;20227;-79
2023/11/12 02:51:49;;;;;;;0.30;0.20;;;9.30;99.90;;;;;;5122453;27;20645;-79
2023/11/12 02:54:14;;;;;;;0.30;0.25;;;9.30;99.90;;;;;;5122907;27;20206;-88
2023/11/12 02:56:40;;;;;;;0.30;0.20;;;9.30;99.90;;;;;;5106617;28;20822;-86
2023/11/12 02:59:07;;;;;;;0.30;0.20;;;9.30;99.90;;;;;;5107202;28;20662;-79
2023/11/12 03:01:33;;;;;;;0.30;0.20;;;9.20;99.90;;;;;;5106617;28;20253;-88
2023/11/12 03:03:59;;;;;;;0.30;0.20;;;9.20;99.90;;;;;;5122673;27;20593;-88
2023/11/12 03:06:25;;;;;;;0.30;0.20;;;9.20;99.90;;;;;;5122246;27;20216;-87
2023/11/12 03:08:51;;;;;;;0.30;0.20;;;9.20;99.90;;;;;;5106736;28;20528;-78
2023/11/12 03:11:17;;;;;;;0.30;0.20;;;9.20;99.90;;;;;;5123175;27;20433;-80
2023/11/12 03:13:43;;;;;;;0.30;0.20;;;9.20;99.90;;;;;;5122190;27;20206;-79
2023/11/12 03:16:09;;;;;;;0.30;0.20;;;9.20;99.90;;;;;;5122177;27;20192;-88
2023/11/12 03:18:35;;;;;;;0.30;0.20;;;9.10;99.90;;;;;;5106526;28;20215;-78
2023/11/12 03:21:01;;;;;;;0.30;0.20;;;9.20;99.90;;;;;;5106450;28;20198;-87
2023/11/12 03:23:26;;;;;;;0.30;0.20;;;9.20;99.90;;;;;;5106721;28;20256;-78
2023/11/12 03:25:52;;;;;;;0.30;0.20;;;9.10;99.90;;;;;;5121898;27;20676;-78
2023/11/12 03:28:18;;;;;;;0.30;0.20;;;9.20;99.90;;;;;;5106414;28;20230;-78
2023/11/12 03:30:44;;;;;;;0.30;0.20;;;9.20;99.90;;;;;;5122855;27;20406;-86
2023/11/12 03:33:09;;;;;;;0.30;0.20;;;9.20;99.90;;;;;;5122578;27;20513;-89
2023/11/12 03:35:37;;;;;;;0.30;0.20;;;9.20;99.90;;;;;;5121850;27;20753;-87
2023/11/12 03:38:02;;;;;;;0.30;0.20;;;9.20;99.90;;;;;;5106096;28;20663;-88
2023/11/12 03:40:28;;;;;;;0.30;0.20;;;9.20;99.90;;;;;;5106166;28;20179;-78
2023/11/12 03:42:54;;;;;;;0.30;0.20;;;9.20;99.90;;;;;;5121765;27;20223;-87
2023/11/12 03:45:19;;;;;;;0.30;0.20;;;9.20;99.90;;;;;;5106105;28;20168;-78
2023/11/12 03:47:45;;;;;;;0.30;0.20;;;9.10;99.90;;;;;;5122058;28;20655;-87
2023/11/12 03:50:12;;;;;;;0.30;0.20;;;9.10;99.90;;;;;;5106461;28;20400;-77
2023/11/12 03:52:37;;;;;;;0.30;0.20;;;9.10;99.90;;;;;;5104757;28;20764;-87
2023/11/12 03:55:06;;;;;;;0.30;0.20;;;9.10;99.90;;;;;;5121977;28;20202;-85
2023/11/12 03:57:32;;;;;;;0.30;0.20;;;9.10;99.90;;;;;;5121567;28;20274;-77
2023/11/12 03:59:58;;;;;;;0.30;0.20;;;9.10;99.90;;;;;;5106071;28;20275;-78
2023/11/12 04:02:24;;;;;;;0.30;0.20;;;9.10;99.90;;;;;;5105950;28;20448;-87
2023/11/12 04:04:50;;;;;;;0.30;0.20;;;9.10;99.90;;;;;;5105903;28;20420;-87
2023/11/12 04:07:16;;;;;;;0.30;0.20;;;9.00;99.90;;;;;;5105904;28;20267;-85
2023/11/12 04:09:41;;;;;;;0.30;0.20;;;9.00;99.90;;;;;;5105995;28;20485;-87
2023/11/12 04:12:08;;;;;;;0.30;0.20;;;8.90;99.90;;;;;;5107189;28;20203;-86
2023/11/12 04:14:33;;;;;;;0.30;0.20;;;8.90;99.90;;;;;;5126617;27;20482;-88
2023/11/12 04:16:59;;;;;;;0.30;0.20;;;8.90;99.90;;;;;;5111190;28;20168;-80
2023/11/12 04:19:25;;;;;;;0.30;0.20;;;8.80;99.90;;;;;;5111062;28;20196;-86
2023/11/12 04:21:51;;;;;;;0.30;0.20;;;8.80;99.90;;;;;;5125759;27;20459;-86
2023/11/12 04:24:17;;;;;;;0.30;0.20;;;8.70;99.90;;;;;;5110263;28;20210;-84
2023/11/12 04:26:44;;;;;;;0.30;0.20;;;8.70;99.90;;;;;;5109704;28;20168;-78
2023/11/12 04:29:10;;;;;;;0.30;0.20;;;8.60;99.90;;;;;;5110024;27;20195;-77
2023/11/12 04:31:36;;;;;;;0.30;0.20;;;8.60;99.90;;;;;;5124931;27;20212;-77
2023/11/12 04:34:02;;;;;;;0.30;0.20;;;8.60;99.90;;;;;;5125755;27;20208;-77
2023/11/12 04:36:28;;;;;;;0.30;0.20;;;8.50;99.90;;;;;;5125455;27;20457;-87
2023/11/12 04:38:57;;;;;;;0.30;0.20;;;8.50;99.90;;;;;;5125552;27;20196;-80
2023/11/12 04:41:25;;;;;;;0.30;0.20;;;8.50;99.90;;;;;;5124957;27;20466;-88
2023/11/12 04:43:51;;;;;;;0.30;0.20;;;8.40;99.90;;;;;;5109845;28;20234;-87
2023/11/12 04:46:20;;;;;;;0.30;0.20;;;8.40;99.90;;;;;;5110177;27;20576;-85
2023/11/12 04:48:46;;;;;;;0.30;0.20;;;8.40;99.90;;;;;;5126594;27;20491;-87
2023/11/12 04:51:12;;;;;;;0.30;0.20;;;8.30;99.90;;;;;;5110617;28;20168;-76
2023/11/12 04:53:40;;;;;;;0.30;0.20;;;8.30;99.90;;;;;;5124654;27;20199;-87
2023/11/12 04:56:10;;;;;;;0.30;0.20;;;8.30;99.90;;;;;;5108587;28;20407;-77
2023/11/12 04:58:35;;;;;;;0.30;0.20;;;8.20;99.90;;;;;;5109499;28;20220;-87
2023/11/12 05:01:03;;;;;;;0.30;0.20;;;8.10;99.90;;;;;;5125123;27;20499;-77
2023/11/12 05:03:31;;;;;;;0.30;0.20;;;8.00;99.90;;;;;;5125184;27;20501;-87
2023/11/12 05:05:59;;;;;;;0.30;0.20;;;8.00;99.90;;;;;;5125117;27;20597;-88
2023/11/12 05:08:25;;;;;;;0.30;0.20;;;7.90;99.90;;;;;;5124971;27;20694;-76
2023/11/12 05:10:51;;;;;;;0.30;0.20;;;7.80;99.90;;;;;;5124781;27;20700;-76
2023/11/12 05:13:17;;;;;;;0.30;0.20;;;7.70;99.90;;;;;;5108822;28;20226;-76
2023/11/12 05:15:42;;;;;;;0.30;0.20;;;7.70;99.90;;;;;;5108703;28;20255;-87
2023/11/12 05:18:08;;;;;;;0.30;0.30;;;7.60;99.90;;;;;;5109164;28;20275;-77
2023/11/12 05:20:34;;;;;;;0.30;0.20;;;7.50;99.90;;;;;;5125158;27;20175;-79
2023/11/12 05:23:01;;;;;;;0.30;0.30;;;7.50;99.90;;;;;;5123866;27;20699;-88
2023/11/12 05:25:30;;;;;;;0.30;0.20;;;7.40;99.90;;;;;;5124306;27;20391;-87
2023/11/12 05:27:56;;;;;;;0.30;0.20;;;7.30;99.90;;;;;;5108800;28;20266;-88
2023/11/12 05:30:23;;;;;;;0.30;0.20;;;7.20;99.90;;;;;;5109418;28;20250;-87
2023/11/12 05:32:49;;;;;;;0.30;0.20;;;7.20;99.90;;;;;;5108357;28;20199;-87
2023/11/12 05:35:15;;;;;;;0.30;0.30;;;7.10;99.90;;;;;;5124118;27;20180;-77
2023/11/12 05:37:41;;;;;;;0.30;0.20;;;7.00;99.90;;;;;;5123865;27;20172;-87
2023/11/12 05:40:08;;;;;;;0.30;0.20;;;7.00;99.90;;;;;;5123891;27;20177;-86
2023/11/12 05:42:34;;;;;;;0.30;0.20;;;7.00;99.90;;;;;;5108198;28;20325;-84
2023/11/12 05:45:00;;;;;;;0.30;0.20;;;6.90;99.90;;;;;;5123929;27;20187;-85
2023/11/12 05:47:25;;;;;;;0.30;0.20;;;6.80;99.90;;;;;;5108272;28;20183;-87
2023/11/12 05:49:51;;;;;;;0.30;0.20;;;6.70;99.90;;;;;;5107939;28;20199;-87
2023/11/12 05:52:17;;;;;;;0.30;0.20;;;6.70;99.90;;;;;;5108320;28;20182;-77
2023/11/12 05:54:42;;;;;;;0.30;0.20;;;6.70;99.90;;;;;;5123848;27;20219;-87
2023/11/12 05:57:08;;;;;;;0.30;0.20;;;6.70;99.90;;;;;;5122805;27;20517;-85
2023/11/12 05:59:33;;;;;;;0.30;0.20;;;6.60;99.90;;;;;;5108144;28;20287;-77
2023/11/12 06:01:59;;;;;;;0.30;0.20;;;6.60;99.90;;;;;;5123660;27;20674;-77
2023/11/12 06:04:24;;;;;;;0.30;0.20;;;6.60;99.90;;;;;;5124349;27;20208;-87
2023/11/12 06:06:50;;;;;;;0.30;0.20;;;6.60;99.90;;;;;;5108557;28;20172;-87
2023/11/12 06:09:17;;;;;;;0.30;0.20;;;6.60;99.90;;;;;;5123457;27;20219;-87
2023/11/12 06:11:43;;;;;;;0.30;0.30;;;6.50;99.90;;;;;;5107638;28;20428;-86
2023/11/12 06:14:08;;;;;;;0.30;0.20;;;6.50;99.90;;;;;;5107411;28;20323;-77
2023/11/12 06:16:35;;;;;;;0.30;0.20;;;6.60;99.90;;;;;;5107731;28;20301;-77
2023/11/12 06:19:01;;;;;;;0.30;0.20;;;6.60;99.90;;;;;;5123308;27;20251;-77
2023/11/12 06:21:27;;;;;;;0.30;0.20;;;6.70;99.90;;;;;;5107554;28;20386;-77
2023/11/12 06:23:53;;;;;;;0.30;0.20;;;6.70;99.90;;;;;;5123117;27;20195;-77
2023/11/12 06:26:20;;;;;;;0.30;0.20;;;6.70;99.90;;;;;;5123068;27;20338;-83
2023/11/12 06:28:50;;;;;;;0.30;0.20;;;6.80;99.90;;;;;;5108350;28;20716;-89
2023/11/12 06:31:16;;;;;;;0.30;0.20;;;6.80;99.90;;;;;;5107413;28;20188;-88
2023/11/12 06:33:45;;;;;;;0.30;0.20;;;6.90;99.90;;;;;;5107737;28;20203;-77
2023/11/12 06:36:13;;;;;;;0.30;0.20;;;7.00;99.90;;;;;;5122966;27;20396;-87
2023/11/12 06:38:48;;;;;;;0.30;0.20;;;7.10;99.90;;;;;;5123778;27;20199;-87
2023/11/12 06:41:14;;;;;;;0.30;0.20;;;7.10;99.90;;;;;;5107211;28;20723;-77
2023/11/12 06:43:40;;;;;;;0.30;0.20;;;7.20;99.90;;;;;;5122991;27;20294;-88
2023/11/12 06:46:06;;;;;;;0.30;0.20;;;7.30;99.90;;;;;;5122825;27;20183;-77
2023/11/12 06:48:32;;;;;;;0.30;0.20;;;7.40;99.90;;;;;;5107629;28;20761;-87
2023/11/12 06:50:58;;;;;;;0.30;0.30;;;7.60;99.90;;;;;;5106706;28;20179;-87
2023/11/12 06:53:23;;;;;;;0.30;0.30;;;7.70;99.90;;;;;;5107413;28;20728;-77
2023/11/12 06:55:49;;;;;;;0.40;0.30;;;7.90;99.90;;;;;;5106707;28;20247;-79
2023/11/12 06:58:15;;;;;;;0.30;0.30;;;8.20;99.90;;;;;;5122633;27;20641;-78
2023/11/12 07:00:41;;;;;;;0.30;0.20;;;8.50;99.90;;;;;;5122635;27;20199;-87
2023/11/12 07:03:07;;;;;;;0.30;0.30;;;8.90;99.90;;;;;;5107189;28;20215;-77
2023/11/12 07:05:33;;;;;;;0.30;0.20;;;9.30;99.90;;;;;;5107197;28;20224;-86
2023/11/12 07:07:58;;;;;;;0.30;0.20;;;9.50;99.90;;;;;;5122616;27;20876;-87
2023/11/12 07:10:25;;;;;;;0.30;0.20;;;9.70;99.90;;;;;;5106571;28;20156;-87
2023/11/12 07:12:51;;;;;;;0.30;0.20;;;9.80;99.90;;;;;;5106200;28;20179;-87
2023/11/12 07:15:17;;;;;;;0.30;0.20;;;9.90;99.90;;;;;;5122712;27;20618;-77
2023/11/12 07:17:47;;;;;;;1.37;1.37;;;10.10;99.90;;;;;;5106457;28;20492;-87
2023/11/12 07:20:13;;;;;;;0.30;0.20;;;10.40;99.90;;;;;;5122683;27;20629;-77
2023/11/12 07:22:39;;;;;;;0.30;0.20;;;10.70;99.90;;;;;;5106286;28;20199;-90
2023/11/12 07:25:05;;;;;;;0.30;0.20;;;11.10;99.90;;;;;;5106165;28;20473;-87
2023/11/12 07:27:31;;;;;;;0.30;0.20;;;11.40;99.90;;;;;;5122186;27;20186;-87
2023/11/12 07:29:58;;;;;;;0.30;0.20;;;11.70;99.90;;;;;;5122141;27;20679;-87
2023/11/12 07:32:23;;;;;;;0.30;0.20;;;11.90;99.90;;;;;;5106471;28;20178;-86
2023/11/12 07:34:49;;;;;;;0.40;0.20;;;12.00;99.90;;;;;;5106180;28;20184;-86
2023/11/12 07:37:15;;;;;;;0.33;0.30;;;12.10;99.90;;;;;;5106691;28;20621;-87
2023/11/12 07:39:41;;;;;;;0.30;0.20;;;12.40;99.90;;;;;;5106431;28;20448;-77
2023/11/12 07:42:07;;;;;;;0.40;0.20;;;12.90;99.90;;;;;;5121572;27;20250;-80
2023/11/12 07:44:35;;;;;;;0.40;0.30;;;13.30;99.90;;;;;;5106115;28;20528;-87
2023/11/12 07:47:01;;;;;;;0.40;0.30;;;13.50;99.90;;;;;;5105797;28;20168;-87
2023/11/12 07:49:26;;;;;;;0.40;0.20;;;14.10;99.90;;;;;;5107896;28;20435;-78
2023/11/12 07:51:52;;;;;;;0.40;0.20;;;14.80;99.90;;;;;;5122762;28;20186;-81
2023/11/12 07:54:18;;;;;;;0.40;0.20;;;15.50;99.90;;;;;;5106161;28;20362;-79
2023/11/12 07:56:44;;;;;;;0.40;0.40;;;16.10;99.90;;;;;;5105930;28;20171;-85
2023/11/12 07:59:10;;;;;;;0.40;0.20;;;16.70;99.90;;;;;;5105627;28;20448;-87
2023/11/12 08:01:36;;;;;;;0.40;0.20;;;17.30;99.90;;;;;;5105911;28;20542;-78
2023/11/12 08:04:01;;;;;;;0.40;0.30;;;18.00;99.90;;;;;;5101323;28;20866;-86
2023/11/12 08:06:28;;;;;;;0.30;0.20;;;18.40;98.90;;;;;;5084909;28;20413;-79
2023/11/12 08:08:54;;;;;;;0.30;0.20;;;18.40;98.80;;;;;;5083190;28;20204;-87
2023/11/12 08:11:20;;;;;;;0.30;0.20;;;18.40;97.90;;;;;;5085731;28;20629;-87
2023/11/12 08:13:46;;;;;;;0.30;0.20;;;18.20;97.80;;;;;;5084129;28;20461;-86
2023/11/12 08:16:12;;;;;;;0.30;0.20;;;18.20;97.30;;;;;;5084954;28;20631;-86
2023/11/12 08:18:39;;;;;;;0.30;0.20;;;18.30;97.20;;;;;;5085517;28;20536;-87
2023/11/12 08:21:05;;;;;;;0.30;0.20;;;18.50;96.90;;;;;;5085145;28;20409;-79
2023/11/12 08:23:31;;;;;;;0.30;0.20;;;18.50;95.80;;;;;;5085834;28;20976;-87
2023/11/12 08:25:58;;;;;;;0.40;0.40;;;18.40;95.50;;;;;;5083073;28;20934;-86
2023/11/12 08:28:24;;;;;;;0.30;0.20;;;18.40;95.60;;;;;;5084350;28;20943;-83
2023/11/12 08:30:50;;;;;;;0.30;0.20;;;18.30;95.00;;;;;;5083862;28;20409;-79
2023/11/12 08:33:17;;;;;;;0.30;0.20;;;18.10;95.20;;;;;;5082648;28;20210;-78
2023/11/12 08:35:42;;;;;;;0.30;0.20;;;17.70;95.20;;;;;;5083717;28;20465;-86
2023/11/12 08:38:08;;;;;;;0.30;0.20;;;17.30;95.40;;;;;;5082355;28;20668;-87
2023/11/12 08:40:35;;;;;;;0.30;0.30;;;16.80;95.60;;;;;;5084380;28;20169;-86
2023/11/12 08:43:01;;;;;;;0.30;0.20;;;16.40;96.50;;;;;;5083488;28;20250;-86
2023/11/12 08:45:27;;;;;;;0.30;0.20;;;16.10;97.10;;;;;;5085345;28;20417;-80
2023/11/12 08:47:53;;;;;;;0.30;0.20;;;15.80;97.00;;;;;;5083408;28;20187;-80
2023/11/12 08:50:19;;;;;;;0.37;0.20;;;15.50;97.90;;;;;;5084210;28;20451;-80
2023/11/12 08:52:44;;;;;;;0.30;0.20;;;15.40;97.90;;;;;;5083921;28;20180;-80
2023/11/12 08:55:11;;;;;;;0.40;0.20;;;15.30;98.30;;;;;;5085307;28;20259;-80
2023/11/12 08:57:37;;;;;;;0.67;0.63;;;15.30;98.30;;;;;;5085785;28;20373;-88
2023/11/12 09:00:06;;;;;;;0.30;0.20;;;15.40;98.40;;;;;;5086665;28;20524;-87
2023/11/12 09:02:32;;;;;;;0.37;0.20;;;15.60;98.20;;;;;;5087036;28;20208;-87
2023/11/12 09:04:58;;;;;;;0.30;0.20;;;15.90;97.80;;;;;;5087254;28;20433;-87
2023/11/12 09:07:24;;;;;;;0.30;0.20;;;16.10;98.00;;;;;;5088576;28;20819;-89
2023/11/12 09:09:50;;;;;;;0.30;0.20;;;16.30;97.40;;;;;;5088239;28;20425;-89
2023/11/12 09:12:16;;;;;;;0.30;0.20;;;16.20;96.70;;;;;;5088580;28;20164;-89
2023/11/12 09:14:41;;;;;;;0.30;0.20;;;16.00;96.70;;;;;;5088450;28;20856;-78
2023/11/12 09:17:07;;;;;;;0.40;0.20;;;15.70;97.30;;;;;;5089866;28;20397;-78
2023/11/12 09:19:33;;;;;;;0.30;0.20;;;15.40;97.60;;;;;;5088823;28;20695;-78
2023/11/12 09:21:58;;;;;;;0.30;0.20;;;15.10;97.50;;;;;;5086384;28;20210;-86
2023/11/12 09:24:24;;;;;;;0.77;0.77;;;15.00;97.80;;;;;;5088663;28;20211;-88
2023/11/12 09:26:50;;;;;;;0.30;0.20;;;14.90;98.20;;;;;;5087978;28;20212;-87
2023/11/12 09:29:16;;;;;;;0.30;0.20;;;14.90;98.80;;;;;;5087033;28;20201;-79
2023/11/12 09:31:42;;;;;;;0.30;0.20;;;14.90;98.70;;;;;;5088591;28;20404;-79
2023/11/12 09:34:08;;;;;;;0.30;0.20;;;14.70;99.10;;;;;;5087012;28;20677;-88
2023/11/12 09:36:33;;;;;;;0.40;0.20;;;14.60;99.40;;;;;;5087976;28;20288;-79
2023/11/12 09:39:00;;;;;;;0.30;0.20;;;14.70;99.70;;;;;;5086841;28;20295;-79
2023/11/12 09:41:28;;;;;;;0.30;0.20;;;14.70;99.20;;;;;;5086630;28;20283;-78
2023/11/12 09:43:55;;;;;;;0.30;0.20;;;14.70;98.90;;;;;;5088089;28;20460;-88
2023/11/12 09:46:24;;;;;;;0.40;0.20;;;14.60;99.20;;;;;;5087653;28;20412;-78
2023/11/12 09:48:52;;;;;;;0.30;0.20;;;14.40;99.40;;;;;;5086510;28;20494;-88
2023/11/12 09:51:18;;;;;;;0.30;0.20;;;14.30;99.00;;;;;;5086658;28;20816;-79
2023/11/12 09:53:47;;;;;;;0.40;0.20;;;14.10;99.10;;;;;;5086269;28;20549;-88
2023/11/12 09:56:13;;;;;;;0.30;0.20;;;14.00;99.40;;;;;;5085759;28;20497;-78
2023/11/12 09:58:47;;;;;;;0.30;0.30;;;14.00;99.50;;;;;;5087154;28;20456;-88
2023/11/12 10:01:14;;;;;;;0.30;0.20;;;13.90;99.70;;;;;;5103576;28;20425;-87
2023/11/12 10:03:43;;;;;;;0.30;0.20;;;13.90;99.90;;;;;;5105236;28;20976;-87
2023/11/12 10:06:11;;;;;;;0.30;0.20;;;13.90;99.90;;;;;;5121923;27;20520;-78
2023/11/12 10:08:38;;;;;;;0.30;0.20;;;14.00;99.80;;;;;;5106905;28;20440;-87
2023/11/12 10:11:23;;;;;;;0.30;0.20;;;13.90;99.70;;;;;;5105680;28;20923;-87
2023/11/12 10:13:51;;;;;;;0.30;0.20;;;14.00;99.90;;;;;;5105696;28;20466;-78
2023/11/12 10:16:31;;;;;;;0.30;0.20;;;14.00;99.90;;;;;;5123254;27;20440;-78
2023/11/12 10:19:13;;;;;;;0.30;0.20;;;14.10;99.90;;;;;;5108388;28;20642;-88
2023/11/12 10:21:58;;;;;;;0.30;0.20;;;14.10;99.90;;;;;;5116526;27;21069;-87
2023/11/12 10:24:29;;;;;;;0.30;0.20;;;14.20;99.90;;;;;;5100370;28;20496;-88
2023/11/12 10:27:02;;;;;;;0.30;0.20;;;14.10;99.90;;;;;;5104767;28;20389;-79
2023/11/12 10:29:29;;;;;;;0.40;0.20;;;14.20;99.90;;;;;;5104787;28;20463;-84
2023/11/12 10:31:57;;;;;;;0.30;0.20;;;14.10;99.50;;;;;;5104803;28;20480;-87
2023/11/12 10:34:26;;;;;;;0.30;0.20;;;14.00;99.30;;;;;;5105110;28;20191;-78
2023/11/12 10:37:13;;;;;;;0.30;0.20;;;13.90;99.50;;;;;;5103269;28;20481;-87
2023/11/12 10:39:41;;;;;;;0.30;0.20;;;14.00;99.90;;;;;;5104262;28;20542;-78
2023/11/12 10:42:26;;;;;;;0.30;0.20;;;14.00;99.60;;;;;;5103564;28;20460;-87
2023/11/12 10:44:55;;;;;;;0.30;0.20;;;14.10;99.70;;;;;;5104059;28;20490;-78
2023/11/12 10:47:30;;;;;;;0.30;0.20;;;14.10;99.70;;;;;;5105662;28;20407;-78
2023/11/12 10:49:56;;;;;;;0.30;0.20;;;14.10;99.00;;;;;;5106884;28;21148;-87
2023/11/12 10:52:23;;;;;;;0.30;0.20;;;14.10;99.00;;;;;;5103969;28;20505;-87
2023/11/12 10:54:51;;;;;;;0.30;0.20;;;14.10;99.30;;;;;;5106112;28;21007;-78
2023/11/12 10:57:23;;;;;;;0.30;0.20;;;14.10;99.30;;;;;;5105099;28;20400;-88
2023/11/12 10:59:49;;;;;;;1.00;0.90;;;14.00;99.90;;;;;;5105603;27;20986;-87
2023/11/12 11:02:21;;;;;;;0.30;0.20;;;14.10;99.90;;;;;;5107136;28;20447;-79
2023/11/12 11:04:47;;;;;;;0.30;0.20;;;14.20;99.90;;;;;;5103363;28;20952;-87
2023/11/12 11:07:14;;;;;;;0.30;0.20;;;14.20;99.60;;;;;;5106472;28;20777;-79
2023/11/12 11:09:40;;;;;;;0.30;0.27;;;14.20;99.30;;;;;;5104483;28;20440;-87
2023/11/12 11:12:08;;;;;;;0.30;0.30;;;14.10;99.60;;;;;;5105011;28;20951;-78
2023/11/12 11:14:34;;;;;;;0.30;0.20;;;14.10;99.90;;;;;;5105204;28;20528;-85
2023/11/12 11:17:00;;;;;;;0.30;0.20;;;14.10;99.80;;;;;;5104984;28;20912;-86
2023/11/12 11:19:48;;;;;;;0.30;0.20;;;14.20;99.90;;;;;;5104046;28;20435;-78
2023/11/12 11:22:29;;;;;;;0.30;0.20;;;14.20;99.90;;;;;;5103612;28;20509;-87
2023/11/12 11:24:56;;;;;;;2.50;0.83;;;14.20;99.10;;;;;;5101755;28;21172;-81
2023/11/12 11:27:25;;;;;;;0.30;0.20;;;14.20;99.30;;;;;;5101510;28;20404;-79
2023/11/12 11:30:13;;;;;;;0.30;0.20;;;14.20;98.70;;;;;;5101948;28;20802;-78
2023/11/12 11:32:55;;;;;;;0.30;0.20;;;14.20;97.90;;;;;;5104509;28;20416;-78
2023/11/12 11:35:22;;;;;;;0.30;0.20;;;14.30;98.50;;;;;;5104888;28;20657;-78
2023/11/12 11:38:12;;;;;;;0.30;0.20;;;14.30;98.90;;;;;;5103229;28;20779;-79
2023/11/12 11:40:39;;;;;;;0.30;0.20;;;14.40;98.90;;;;;;5106349;28;20460;-87
2023/11/12 11:43:23;;;;;;;0.30;0.20;;;14.40;98.10;;;;;;5104578;28;20483;-79
2023/11/12 11:46:09;;;;;;;0.30;0.20;;;14.30;97.70;;;;;;5103703;28;20431;-82
2023/11/12 11:48:44;;;;;;;0.30;0.20;;;14.20;97.40;;;;;;5105699;28;20447;-87
2023/11/12 11:51:28;;;;;;;0.30;0.20;;;14.20;97.30;;;;;;5104293;28;20470;-86
2023/11/12 11:53:57;;;;;;;0.30;0.20;;;14.20;97.90;;;;;;5103015;28;20485;-78
2023/11/12 11:56:26;;;;;;;0.30;0.20;;;14.30;98.40;;;;;;5103075;28;20461;-78
2023/11/12 11:58:53;;;;;;;0.30;0.20;;;14.30;97.90;;;;;;5103024;28;20435;-77
2023/11/12 12:01:19;;;;;;;0.30;0.20;;;14.30;98.20;;;;;;5104113;28;20424;-87
2023/11/12 12:03:45;;;;;;;0.30;0.20;;;14.40;97.80;;;;;;5103506;28;20475;-87
2023/11/12 12:06:15;;;;;;;0.30;0.20;;;14.40;97.70;;;;;;5105935;28;20416;-87
2023/11/12 12:08:52;;;;;;;1.77;1.70;;;14.40;97.20;;;;;;5107682;28;20427;-87
2023/11/12 12:11:20;;;;;;;0.30;0.30;;;14.40;97.30;;;;;;5102343;28;20416;-86
2023/11/12 12:13:59;;;;;;;0.30;0.20;;;14.40;96.80;;;;;;5105220;28;20556;-88
2023/11/12 12:16:30;;;;;;;0.30;0.20;;;14.40;96.50;;;;;;5121300;28;20506;-79
2023/11/12 12:18:56;;;;;;;0.30;0.20;;;14.40;96.80;;;;;;5102663;28;20481;-79
2023/11/12 12:21:23;;;;;;;0.30;0.20;;;14.40;96.80;;;;;;5119709;28;20495;-79
2023/11/12 12:23:50;;;;;;;0.30;0.20;;;14.40;96.80;;;;;;5104260;28;20477;-79
2023/11/12 12:26:16;;;;;;;0.30;0.20;;;14.40;96.50;;;;;;5102180;28;20793;-88
2023/11/12 12:28:42;;;;;;;0.30;0.20;;;14.40;96.30;;;;;;5096454;28;20456;-79
2023/11/12 12:31:09;;;;;;;0.30;0.20;;;14.50;96.50;;;;;;5102306;28;20427;-88
2023/11/12 12:33:38;;;;;;;0.30;0.30;;;14.50;96.00;;;;;;5104389;28;20518;-89
2023/11/12 12:36:14;;;;;;;0.30;0.20;;;14.50;96.10;;;;;;5098555;28;20413;-79
2023/11/12 12:38:59;;;;;;;0.30;0.20;;;14.60;96.20;;;;;;5087728;28;20813;-78
2023/11/12 12:41:26;;;;;;;0.30;0.20;;;14.60;96.00;;;;;;5088322;28;20404;-79
2023/11/12 12:43:54;;;;;;;0.30;0.20;;;14.60;96.30;;;;;;5103971;28;20494;-88
2023/11/12 12:46:24;;;;;;;0.30;0.20;;;14.60;96.40;;;;;;5108064;27;20911;-79
2023/11/12 12:48:55;;;;;;;0.80;0.80;;;14.60;96.80;;;;;;5124542;27;20795;-88
2023/11/12 12:51:24;;;;;;;0.30;0.20;;;14.60;96.30;;;;;;5108115;28;20455;-88
2023/11/12 12:53:51;;;;;;;0.30;0.20;;;14.60;95.70;;;;;;5108179;28;20435;-88
2023/11/12 12:56:18;;;;;;;0.30;0.20;;;14.70;95.80;;;;;;5108758;28;20414;-79